Time;durP1;ratioP1;P1;durP2;ratioP2;P2;SDS_P1;SDS_P2;PMS_P1;PMS_P2;Temp;Humidity;BMP_temperature;BMP_pressure;BME280_temperature;BME280_humidity;BME280_pressure;Samples;Min_cycle;Max_cycle;Signal;HPM_P1;HPM_P2
2023/10/11 00:01:09;;;;;;;3.08;2.80;;;;;;;;;;6334139;28;20665;-72
2023/10/11 00:04:24;;;;;;;3.95;3.13;;;;;;;;;;6333876;28;20306;-69
2023/10/11 00:07:32;;;;;;;3.42;3.00;;;;;;;;;;6333245;28;20310;-70
2023/10/11 00:10:43;;;;;;;3.17;3.08;;;;;;;;;;6333739;28;20442;-71
2023/10/11 00:13:48;;;;;;;3.97;3.00;;;;;;;;;;6331349;27;20295;-70
2023/10/11 00:16:53;;;;;;;3.30;3.00;;;;;;;;;;6334045;28;20297;-71
2023/10/11 00:19:57;;;;;;;7.13;3.15;;;;;;;;;;6333323;27;20294;-70
2023/10/11 00:23:01;;;;;;;4.45;3.55;;;;;;;;;;6333095;27;20605;-69
2023/10/11 00:26:07;;;;;;;2.72;2.58;;;;;;;;;;6333286;28;20497;-70
2023/10/11 00:29:14;;;;;;;3.03;2.85;;;;;;;;;;6333085;27;20551;-70
2023/10/11 00:32:18;;;;;;;3.08;2.97;;;;;;;;;;6332555;28;20297;-69
2023/10/11 00:35:25;;;;;;;3.42;3.13;;;;;;;;;;6331200;28;20309;-70
2023/10/11 00:38:29;;;;;;;5.00;3.17;;;;;;;;;;6332447;28;20301;-70
2023/10/11 00:41:39;;;;;;;3.25;3.10;;;;;;;;;;6331188;28;20298;-69
2023/10/11 00:44:44;;;;;;;3.88;3.08;;;;;;;;;;6330556;28;20297;-71
2023/10/11 00:47:51;;;;;;;3.38;2.95;;;;;;;;;;6331688;28;20297;-69
2023/10/11 00:50:56;;;;;;;3.75;3.20;;;;;;;;;;6330825;28;20314;-70
2023/10/11 00:54:02;;;;;;;3.30;3.20;;;;;;;;;;6331935;28;20341;-70
2023/10/11 00:57:08;;;;;;;3.30;2.97;;;;;;;;;;6332424;28;20311;-70
2023/10/11 01:00:14;;;;;;;4.38;3.30;;;;;;;;;;6330183;28;20313;-70
2023/10/11 01:03:21;;;;;;;3.67;3.42;;;;;;;;;;6332081;28;20575;-71
2023/10/11 01:06:26;;;;;;;3.55;3.28;;;;;;;;;;6332229;28;20285;-71
2023/10/11 01:09:30;;;;;;;5.45;3.90;;;;;;;;;;6311856;28;20298;-69
2023/10/11 01:12:35;;;;;;;3.28;3.08;;;;;;;;;;6331715;28;20290;-70
2023/10/11 01:15:40;;;;;;;3.47;3.20;;;;;;;;;;6329017;28;20302;-70
2023/10/11 01:18:44;;;;;;;3.67;3.40;;;;;;;;;;6330075;28;20388;-70
2023/10/11 01:21:52;;;;;;;3.75;3.50;;;;;;;;;;6330487;28;20313;-69
2023/10/11 01:25:00;;;;;;;3.45;3.15;;;;;;;;;;6329236;28;20285;-70
2023/10/11 01:28:04;;;;;;;5.65;3.53;;;;;;;;;;6331342;28;20321;-70
2023/10/11 01:31:09;;;;;;;3.55;3.25;;;;;;;;;;6330050;27;20484;-71
2023/10/11 01:34:14;;;;;;;3.38;3.13;;;;;;;;;;6329725;28;20451;-69
2023/10/11 01:37:22;;;;;;;3.10;3.00;;;;;;;;;;6331164;28;20561;-69
2023/10/11 01:40:31;;;;;;;5.60;3.33;;;;;;;;;;6332106;28;20317;-69
2023/10/11 01:43:35;;;;;;;4.78;3.67;;;;;;;;;;6329125;28;20446;-69
2023/10/11 01:46:39;;;;;;;3.80;3.50;;;;;;;;;;6331375;28;20598;-71
2023/10/11 01:49:45;;;;;;;4.95;3.40;;;;;;;;;;6330666;28;20298;-71
2023/10/11 01:52:50;;;;;;;3.67;3.35;;;;;;;;;;6329285;28;20297;-70
2023/10/11 01:55:55;;;;;;;6.35;3.47;;;;;;;;;;6331329;28;20289;-70
2023/10/11 01:59:01;;;;;;;3.78;3.42;;;;;;;;;;6329127;28;20293;-69
2023/10/11 02:02:09;;;;;;;4.07;3.47;;;;;;;;;;6329829;28;20297;-70
2023/10/11 02:05:14;;;;;;;4.30;4.00;;;;;;;;;;6330739;28;20289;-69
2023/10/11 02:08:19;;;;;;;4.25;3.95;;;;;;;;;;6328797;28;20328;-72
2023/10/11 02:11:24;;;;;;;4.00;3.58;;;;;;;;;;6329540;28;20229;-70
2023/10/11 02:14:29;;;;;;;4.55;3.90;;;;;;;;;;6361042;27;20297;-70
2023/10/11 02:17:35;;;;;;;4.32;3.95;;;;;;;;;;6330513;27;20518;-70
2023/10/11 02:20:44;;;;;;;4.93;3.88;;;;;;;;;;6330775;28;20306;-70
2023/10/11 02:23:49;;;;;;;5.18;3.72;;;;;;;;;;6330513;27;20317;-70
2023/10/11 02:26:54;;;;;;;6.55;4.25;;;;;;;;;;6363106;28;20289;-69
2023/10/11 02:30:06;;;;;;;5.13;4.03;;;;;;;;;;6330228;28;20290;-70
2023/10/11 02:33:11;;;;;;;6.88;3.70;;;;;;;;;;6330001;28;20489;-71
2023/10/11 02:36:18;;;;;;;6.22;4.15;;;;;;;;;;6330860;28;20301;-69
2023/10/11 02:39:31;;;;;;;8.68;4.13;;;;;;;;;;6330195;28;20299;-69
2023/10/11 02:42:37;;;;;;;7.10;4.40;;;;;;;;;;6330257;28;20351;-70
2023/10/11 02:45:40;;;;;;;12.05;4.53;;;;;;;;;;6330921;28;20313;-70
2023/10/11 02:48:46;;;;;;;6.65;4.15;;;;;;;;;;6330000;28;20290;-70
2023/10/11 02:51:55;;;;;;;8.18;4.88;;;;;;;;;;6329586;28;20321;-71
2023/10/11 02:55:10;;;;;;;7.43;4.45;;;;;;;;;;6328048;28;20486;-71
2023/10/11 02:58:21;;;;;;;7.32;4.43;;;;;;;;;;6329821;28;20594;-70
2023/10/11 03:01:31;;;;;;;7.72;4.35;;;;;;;;;;6327769;28;20302;-72
2023/10/11 03:04:38;;;;;;;5.50;4.20;;;;;;;;;;6326508;28;20298;-70
2023/10/11 03:07:45;;;;;;;7.50;5.10;;;;;;;;;;6328401;28;20483;-70
2023/10/11 03:10:54;;;;;;;5.00;4.38;;;;;;;;;;6328786;28;20286;-71
2023/10/11 03:13:57;;;;;;;7.13;4.90;;;;;;;;;;6330660;28;20310;-70
2023/10/11 03:17:06;;;;;;;6.65;4.93;;;;;;;;;;6335022;28;20324;-69
2023/10/11 03:20:24;;;;;;;10.85;4.93;;;;;;;;;;6334093;28;20583;-70
2023/10/11 03:23:28;;;;;;;9.52;4.90;;;;;;;;;;6334273;28;20314;-70
2023/10/11 03:26:34;;;;;;;9.90;5.43;;;;;;;;;;6334603;28;20637;-70
2023/10/11 03:29:41;;;;;;;5.63;5.13;;;;;;;;;;6334030;28;20293;-70
2023/10/11 03:32:46;;;;;;;11.85;5.63;;;;;;;;;;6333802;28;20289;-69
2023/10/11 03:35:50;;;;;;;7.22;5.25;;;;;;;;;;6334260;28;20578;-69
2023/10/11 03:38:55;;;;;;;5.53;5.00;;;;;;;;;;6333601;28;20404;-70
2023/10/11 03:42:07;;;;;;;10.82;5.22;;;;;;;;;;6334224;28;20376;-71
2023/10/11 03:45:13;;;;;;;5.97;5.13;;;;;;;;;;6333782;28;20297;-69
2023/10/11 03:48:17;;;;;;;7.13;5.10;;;;;;;;;;6333579;28;20297;-70
2023/10/11 03:51:22;;;;;;;13.82;5.85;;;;;;;;;;6335552;28;20301;-71
2023/10/11 03:54:27;;;;;;;7.45;5.38;;;;;;;;;;6333462;28;20484;-70
2023/10/11 03:57:36;;;;;;;8.68;5.40;;;;;;;;;;6333330;28;20353;-69
2023/10/11 04:00:46;;;;;;;11.20;5.68;;;;;;;;;;6333958;28;20290;-71
2023/10/11 04:03:51;;;;;;;9.40;5.53;;;;;;;;;;6332250;28;20285;-70
2023/10/11 04:07:01;;;;;;;10.07;5.63;;;;;;;;;;6333805;28;20253;-71
2023/10/11 04:10:10;;;;;;;12.07;5.95;;;;;;;;;;6333139;27;20285;-70
2023/10/11 04:13:15;;;;;;;13.10;6.07;;;;;;;;;;6331212;28;20648;-72
2023/10/11 04:16:19;;;;;;;11.55;5.97;;;;;;;;;;6333659;28;20297;-70
2023/10/11 04:19:23;;;;;;;9.18;6.20;;;;;;;;;;6333081;27;20298;-71
2023/10/11 04:22:32;;;;;;;12.80;6.55;;;;;;;;;;6332941;27;20494;-70
2023/10/11 04:25:37;;;;;;;10.73;6.43;;;;;;;;;;6333178;28;20290;-69
2023/10/11 04:28:42;;;;;;;10.32;6.85;;;;;;;;;;6332886;27;20487;-70
2023/10/11 04:31:55;;;;;;;11.38;6.68;;;;;;;;;;6332732;28;20359;-70
2023/10/11 04:35:00;;;;;;;10.98;6.75;;;;;;;;;;6332658;28;20297;-71
2023/10/11 04:38:05;;;;;;;14.40;7.57;;;;;;;;;;6332678;28;20309;-72
2023/10/11 04:41:14;;;;;;;10.13;6.70;;;;;;;;;;6333115;28;20305;-71
2023/10/11 04:44:22;;;;;;;12.25;6.57;;;;;;;;;;6332434;28;20559;-70
2023/10/11 04:47:27;;;;;;;12.00;6.93;;;;;;;;;;6332679;28;20301;-70
2023/10/11 04:50:31;;;;;;;13.93;6.85;;;;;;;;;;6332818;28;20617;-70
2023/10/11 04:53:47;;;;;;;11.77;6.82;;;;;;;;;;6332172;28;20308;-71
2023/10/11 04:56:55;;;;;;;18.98;7.50;;;;;;;;;;6332863;28;20474;-71
2023/10/11 05:00:00;;;;;;;15.70;7.15;;;;;;;;;;6332312;28;20617;-69
2023/10/11 05:03:04;;;;;;;12.27;6.90;;;;;;;;;;6331936;28;20285;-70
2023/10/11 05:06:14;;;;;;;11.30;6.95;;;;;;;;;;6332598;28;20297;-70
2023/10/11 05:09:29;;;;;;;12.52;6.82;;;;;;;;;;6331973;28;20458;-73
2023/10/11 05:12:41;;;;;;;12.05;7.28;;;;;;;;;;6306537;28;20306;-72
2023/10/11 05:15:48;;;;;;;14.52;7.25;;;;;;;;;;6305077;28;20305;-72
2023/10/11 05:18:51;;;;;;;15.38;6.90;;;;;;;;;;6305556;28;20298;-71
2023/10/11 05:21:58;;;;;;;16.25;7.43;;;;;;;;;;6306693;28;20286;-71
2023/10/11 05:25:37;;;;;;;10.88;7.30;;;;;;;;;;6306212;28;20314;-70
2023/10/11 05:28:59;;;;;;;14.38;7.32;;;;;;;;;;6306423;28;20290;-70
2023/10/11 05:35:53;;;;;;;17.05;7.40;;;;;;;;;;6330167;28;20297;-70
2023/10/11 05:52:17;;;;;;;16.67;8.15;;;;;;;;;;6331205;27;20301;-70
2023/10/11 05:55:21;;;;;;;15.27;8.15;;;;;;;;;;6331446;28;20305;-71
2023/10/11 05:58:25;;;;;;;13.98;8.38;;;;;;;;;;6330861;27;20321;-70
2023/10/11 06:01:29;;;;;;;16.88;8.70;;;;;;;;;;6330959;28;20289;-69
2023/10/11 06:04:39;;;;;;;10.73;7.93;;;;;;;;;;6330658;28;20336;-70
2023/10/11 06:07:43;;;;;;;12.13;7.78;;;;;;;;;;6331256;27;20317;-69
2023/10/11 06:10:48;;;;;;;15.57;7.75;;;;;;;;;;6331257;28;20604;-70
2023/10/11 06:13:54;;;;;;;19.48;8.70;;;;;;;;;;6328772;28;20301;-69
2023/10/11 06:17:05;;;;;;;21.02;9.07;;;;;;;;;;6331194;28;20297;-70
2023/10/11 06:20:23;;;;;;;14.95;7.75;;;;;;;;;;6330779;28;20301;-70
2023/10/11 06:23:27;;;;;;;15.82;8.30;;;;;;;;;;6330736;28;20459;-70
2023/10/11 06:29:54;;;;;;;14.10;7.60;;;;;;;;;;6330403;28;20301;-70
2023/10/11 06:32:58;;;;;;;18.58;8.43;;;;;;;;;;6330244;28;20458;-70
2023/10/11 06:36:11;;;;;;;13.68;8.38;;;;;;;;;;6331040;28;20313;-70
2023/10/11 06:40:07;;;;;;;13.00;8.35;;;;;;;;;;6330855;28;20572;-71
2023/10/11 06:42:58;;;;;;;14.15;8.30;;;;;;;;;;6329706;28;20306;-69
2023/10/11 06:46:02;;;;;;;18.45;8.85;;;;;;;;;;6329523;28;20575;-71
2023/10/11 06:49:06;;;;;;;12.80;8.00;;;;;;;;;;6335151;28;20393;-71
2023/10/11 06:52:12;;;;;;;18.98;8.68;;;;;;;;;;6335720;27;20325;-70
2023/10/11 06:55:18;;;;;;;17.80;8.98;;;;;;;;;;6335037;28;20469;-69
2023/10/11 06:58:22;;;;;;;19.05;9.50;;;;;;;;;;6334873;27;20297;-70
2023/10/11 07:01:30;;;;;;;13.93;8.60;;;;;;;;;;6335234;28;20293;-71
2023/10/11 07:04:37;;;;;;;18.52;9.50;;;;;;;;;;6335057;28;20366;-69
2023/10/11 07:07:47;;;;;;;17.45;9.30;;;;;;;;;;6334732;27;20297;-70
2023/10/11 07:11:00;;;;;;;20.45;9.93;;;;;;;;;;6335056;28;20293;-70
2023/10/11 07:14:14;;;;;;;15.40;9.40;;;;;;;;;;6332662;28;20337;-70
2023/10/11 07:17:21;;;;;;;17.55;9.05;;;;;;;;;;6334644;28;20286;-70
2023/10/11 07:20:47;;;;;;;18.92;8.80;;;;;;;;;;6335080;28;20381;-70
2023/10/11 07:24:19;;;;;;;17.23;9.00;;;;;;;;;;6334497;28;20306;-69
2023/10/11 07:27:37;;;;;;;17.92;9.35;;;;;;;;;;6334478;28;20506;-70
2023/10/11 07:30:40;;;;;;;19.55;9.57;;;;;;;;;;6334783;28;20302;-70
2023/10/11 07:33:49;;;;;;;16.35;9.55;;;;;;;;;;6333890;28;20306;-70
2023/10/11 07:36:55;;;;;;;18.10;9.57;;;;;;;;;;6333863;27;20274;-70
2023/10/11 07:40:09;;;;;;;17.50;8.82;;;;;;;;;;6334225;27;20289;-70
2023/10/11 07:43:16;;;;;;;15.63;9.32;;;;;;;;;;6333956;27;20491;-71
2023/10/11 07:46:20;;;;;;;15.10;8.93;;;;;;;;;;6367080;27;20303;-70
2023/10/11 07:49:25;;;;;;;17.08;9.63;;;;;;;;;;6333943;28;20313;-72
2023/10/11 07:52:29;;;;;;;16.02;9.80;;;;;;;;;;6333849;27;20467;-69
2023/10/11 07:55:38;;;;;;;18.45;9.43;;;;;;;;;;6333860;28;20297;-71
2023/10/11 07:58:45;;;;;;;17.85;9.23;;;;;;;;;;6332803;28;20286;-71
2023/10/11 08:01:53;;;;;;;16.42;9.57;;;;;;;;;;6333908;28;20321;-69
2023/10/11 08:04:58;;;;;;;18.38;9.35;;;;;;;;;;6333405;28;20297;-69
2023/10/11 08:08:05;;;;;;;15.13;9.45;;;;;;;;;;6333190;27;20511;-69
2023/10/11 08:11:18;;;;;;;18.98;9.70;;;;;;;;;;6333695;28;20294;-70
2023/10/11 08:14:23;;;;;;;20.02;9.45;;;;;;;;;;6331233;28;20621;-70
2023/10/11 08:17:29;;;;;;;17.48;10.60;;;;;;;;;;6333320;28;20528;-70
2023/10/11 08:20:35;;;;;;;19.55;10.07;;;;;;;;;;6333415;28;20298;-71
2023/10/11 08:23:42;;;;;;;13.98;9.07;;;;;;;;;;6332907;28;20302;-72
2023/10/11 08:26:52;;;;;;;15.70;9.85;;;;;;;;;;6333666;28;20298;-70
2023/10/11 08:30:06;;;;;;;17.80;9.73;;;;;;;;;;6333105;28;20297;-71
2023/10/11 08:33:12;;;;;;;23.02;10.70;;;;;;;;;;6332622;28;20285;-71
2023/10/11 08:36:18;;;;;;;14.88;9.15;;;;;;;;;;6333245;28;20301;-70
2023/10/11 08:39:35;;;;;;;19.60;10.00;;;;;;;;;;6332622;28;20306;-71
2023/10/11 08:42:40;;;;;;;16.70;9.40;;;;;;;;;;6333370;28;20294;-70
2023/10/11 08:45:49;;;;;;;17.40;9.80;;;;;;;;;;6333156;28;20293;-71
2023/10/11 08:48:54;;;;;;;19.25;9.65;;;;;;;;;;6330182;28;20495;-71
2023/10/11 08:52:01;;;;;;;13.40;9.80;;;;;;;;;;6333315;28;20262;-70
2023/10/11 08:55:06;;;;;;;12.35;9.50;;;;;;;;;;6332472;28;20254;-70
2023/10/11 08:58:12;;;;;;;16.63;9.65;;;;;;;;;;6332350;28;20606;-72
2023/10/11 09:01:17;;;;;;;17.70;8.70;;;;;;;;;;6332777;28;20301;-72
2023/10/11 09:04:26;;;;;;;18.90;9.07;;;;;;;;;;6332379;28;20298;-71
2023/10/11 09:07:45;;;;;;;15.88;8.55;;;;;;;;;;6332163;27;20329;-71
2023/10/11 09:10:49;;;;;;;15.90;8.30;;;;;;;;;;6331857;28;20302;-70
2023/10/11 09:14:10;;;;;;;12.93;8.18;;;;;;;;;;6330382;28;20226;-70
2023/10/11 09:17:18;;;;;;;15.73;8.30;;;;;;;;;;6332512;28;20524;-70
2023/10/11 09:20:40;;;;;;;16.27;7.85;;;;;;;;;;6331902;28;20469;-70
2023/10/11 09:23:47;;;;;;;13.60;8.05;;;;;;;;;;6332581;28;20301;-69
2023/10/11 09:27:18;;;;;;;18.92;7.88;;;;;;;;;;6332633;28;20294;-71
2023/10/11 09:30:27;;;;;;;13.15;7.43;;;;;;;;;;6331513;28;20290;-70
2023/10/11 09:33:35;;;;;;;10.70;7.30;;;;;;;;;;6331560;28;20594;-70
2023/10/11 09:36:40;;;;;;;11.43;7.18;;;;;;;;;;6331934;28;20297;-71
2023/10/11 09:39:43;;;;;;;9.55;7.20;;;;;;;;;;6331695;27;20593;-70
2023/10/11 09:42:49;;;;;;;12.68;6.90;;;;;;;;;;6331754;27;20285;-70
2023/10/11 09:45:54;;;;;;;9.85;6.93;;;;;;;;;;6331592;28;20273;-70
2023/10/11 09:49:01;;;;;;;7.10;5.93;;;;;;;;;;6332188;28;20581;-70
2023/10/11 09:52:07;;;;;;;10.05;6.60;;;;;;;;;;6331737;27;20246;-69
2023/10/11 09:55:17;;;;;;;11.32;5.80;;;;;;;;;;6331410;28;20293;-72
2023/10/11 09:58:31;;;;;;;14.40;6.65;;;;;;;;;;6331167;28;20341;-71
2023/10/11 10:01:42;;;;;;;9.02;6.30;;;;;;;;;;6331481;28;20285;-71
2023/10/11 10:04:57;;;;;;;14.25;6.55;;;;;;;;;;6331259;28;20305;-70
2023/10/11 10:08:14;;;;;;;8.63;5.70;;;;;;;;;;6331601;27;20310;-70
2023/10/11 10:11:19;;;;;;;10.48;5.97;;;;;;;;;;6331919;28;20297;-71
2023/10/11 10:14:24;;;;;;;6.95;5.40;;;;;;;;;;6329162;28;20302;-71
2023/10/11 10:17:29;;;;;;;11.45;5.97;;;;;;;;;;6330918;28;20309;-71
2023/10/11 10:20:43;;;;;;;14.27;6.53;;;;;;;;;;6332449;28;20281;-69
2023/10/11 10:23:51;;;;;;;14.30;6.50;;;;;;;;;;6336033;28;20286;-70
2023/10/11 10:26:55;;;;;;;10.25;5.82;;;;;;;;;;6334628;28;20575;-69
2023/10/11 10:29:59;;;;;;;15.43;5.85;;;;;;;;;;6336024;28;20297;-73
2023/10/11 10:33:21;;;;;;;13.40;5.93;;;;;;;;;;6335911;28;20376;-71
2023/10/11 10:36:40;;;;;;;8.07;6.00;;;;;;;;;;6336069;28;20450;-71
2023/10/11 10:40:17;;;;;;;7.70;5.90;;;;;;;;;;6335552;27;20442;-71
2023/10/11 10:43:23;;;;;;;7.47;5.60;;;;;;;;;;6334628;28;20313;-72
2023/10/11 10:46:26;;;;;;;9.05;5.82;;;;;;;;;;6334762;28;20509;-71
2023/10/11 10:49:42;;;;;;;6.50;5.72;;;;;;;;;;6335333;28;20459;-69
2023/10/11 10:52:53;;;;;;;10.27;5.50;;;;;;;;;;6335448;27;20297;-71
2023/10/11 10:55:58;;;;;;;10.15;6.28;;;;;;;;;;6335995;28;20294;-70
2023/10/11 10:59:07;;;;;;;9.27;6.13;;;;;;;;;;6335120;28;20602;-69
2023/10/11 11:02:11;;;;;;;10.68;5.80;;;;;;;;;;6335495;28;20290;-71
2023/10/11 11:05:24;;;;;;;7.05;5.97;;;;;;;;;;6335200;28;20317;-70
2023/10/11 11:08:37;;;;;;;9.18;6.03;;;;;;;;;;6334833;27;20297;-70
2023/10/11 11:11:40;;;;;;;8.98;5.03;;;;;;;;;;6335336;28;20293;-70
2023/10/11 11:14:54;;;;;;;6.85;5.35;;;;;;;;;;6332866;28;20305;-71
2023/10/11 11:18:01;;;;;;;10.30;5.63;;;;;;;;;;6334671;28;20397;-70
2023/10/11 11:21:20;;;;;;;9.20;4.90;;;;;;;;;;6335008;28;20325;-70
2023/10/11 11:24:27;;;;;;;5.55;4.55;;;;;;;;;;6334669;28;20491;-71
2023/10/11 11:27:35;;;;;;;5.93;4.60;;;;;;;;;;6334722;28;20302;-71
2023/10/11 11:30:43;;;;;;;5.78;4.55;;;;;;;;;;6334857;28;20301;-70
2023/10/11 11:34:05;;;;;;;5.28;4.80;;;;;;;;;;6333220;28;20301;-70
2023/10/11 11:37:20;;;;;;;7.45;5.18;;;;;;;;;;6333836;28;20289;-69
2023/10/11 11:40:25;;;;;;;14.55;5.82;;;;;;;;;;6334322;28;20309;-69
2023/10/11 11:43:33;;;;;;;7.15;5.63;;;;;;;;;;6333731;28;20297;-68
2023/10/11 11:46:39;;;;;;;7.82;5.55;;;;;;;;;;6334444;28;20297;-72
2023/10/11 11:49:44;;;;;;;8.23;5.55;;;;;;;;;;6332041;28;20329;-69
2023/10/11 11:52:48;;;;;;;8.68;4.85;;;;;;;;;;6333804;28;20313;-69
2023/10/11 11:55:52;;;;;;;8.23;5.20;;;;;;;;;;6334135;28;20297;-69
2023/10/11 11:59:00;;;;;;;7.38;5.10;;;;;;;;;;6333859;28;20297;-69
2023/10/11 12:02:08;;;;;;;15.18;5.07;;;;;;;;;;6334071;28;20293;-72
2023/10/11 12:05:12;;;;;;;10.48;5.20;;;;;;;;;;6333485;28;20301;-71
2023/10/11 12:08:19;;;;;;;8.93;5.28;;;;;;;;;;6333225;28;20341;-71
2023/10/11 12:11:23;;;;;;;6.97;5.10;;;;;;;;;;6333998;28;20286;-73
2023/10/11 12:14:27;;;;;;;9.60;5.28;;;;;;;;;;6329898;28;20490;-71
2023/10/11 12:17:32;;;;;;;8.02;5.63;;;;;;;;;;6333278;28;20309;-70
2023/10/11 12:20:36;;;;;;;8.85;5.47;;;;;;;;;;6333750;28;20289;-70
2023/10/11 12:23:46;;;;;;;6.80;5.20;;;;;;;;;;6333175;28;20321;-70
2023/10/11 12:26:53;;;;;;;9.02;5.85;;;;;;;;;;6333569;28;20293;-70
2023/10/11 12:29:57;;;;;;;6.70;5.57;;;;;;;;;;6332902;28;20289;-70
2023/10/11 12:33:12;;;;;;;4.00;3.50;;;;;;;;;;6332824;28;20298;-70
2023/10/11 12:36:20;;;;;;;3.20;2.97;;;;;;;;;;6331558;28;20297;-70
2023/10/11 12:39:29;;;;;;;2.97;2.83;;;;;;;;;;6332884;28;20369;-70
2023/10/11 12:42:34;;;;;;;2.72;2.50;;;;;;;;;;6332894;28;20313;-71
2023/10/11 12:45:42;;;;;;;3.45;2.70;;;;;;;;;;6333366;28;20317;-71
2023/10/11 12:48:54;;;;;;;3.60;2.30;;;;;;;;;;6332357;28;20290;-71
2023/10/11 12:51:59;;;;;;;2.25;2.10;;;;;;;;;;6331969;28;20261;-70
2023/10/11 12:55:06;;;;;;;2.10;2.00;;;;;;;;;;6332575;28;20300;-70
2023/10/11 12:58:14;;;;;;;3.20;1.88;;;;;;;;;;6331930;28;20289;-71
2023/10/11 13:01:25;;;;;;;3.53;1.50;;;;;;;;;;6332668;28;20294;-70
2023/10/11 13:04:32;;;;;;;1.15;1.15;;;;;;;;;;6332427;28;20286;-69
2023/10/11 13:07:37;;;;;;;1.05;1.05;;;;;;;;;;6329877;28;20293;-70
2023/10/11 13:10:48;;;;;;;1.45;1.35;;;;;;;;;;6317704;28;20587;-71
2023/10/11 13:13:52;;;;;;;1.55;1.35;;;;;;;;;;6329851;28;20301;-70
2023/10/11 13:17:00;;;;;;;1.67;1.40;;;;;;;;;;6332277;28;20305;-69
2023/10/11 13:20:18;;;;;;;4.82;1.20;;;;;;;;;;6331616;27;20297;-69
2023/10/11 13:23:28;;;;;;;1.98;1.05;;;;;;;;;;6331878;28;20317;-71
2023/10/11 13:26:34;;;;;;;1.35;1.35;;;;;;;;;;6332339;28;20285;-70
2023/10/11 13:29:38;;;;;;;1.75;1.35;;;;;;;;;;6331721;28;20516;-71
2023/10/11 13:32:44;;;;;;;1.10;1.10;;;;;;;;;;6331499;28;20309;-69
2023/10/11 13:35:49;;;;;;;1.30;1.23;;;;;;;;;;6331998;28;20285;-71
2023/10/11 13:38:54;;;;;;;0.80;0.80;;;;;;;;;;6331493;28;20298;-72
2023/10/11 13:42:03;;;;;;;0.80;0.80;;;;;;;;;;6331868;28;20321;-70
2023/10/11 13:45:09;;;;;;;1.08;0.90;;;;;;;;;;6331347;28;20301;-70
2023/10/11 13:48:14;;;;;;;1.38;0.73;;;;;;;;;;6331473;28;20293;-71
2023/10/11 13:51:18;;;;;;;2.63;0.80;;;;;;;;;;6331602;28;20289;-69
2023/10/11 13:54:35;;;;;;;0.80;0.80;;;;;;;;;;6329760;28;20293;-70
2023/10/11 13:57:48;;;;;;;0.60;0.60;;;;;;;;;;6330911;28;20301;-69
2023/10/11 14:01:24;;;;;;;0.80;0.80;;;;;;;;;;6330838;28;20271;-70
2023/10/11 14:07:52;;;;;;;2.95;0.90;;;;;;;;;;6328706;28;20285;-69
2023/10/11 14:10:57;;;;;;;0.73;0.73;;;;;;;;;;6331288;28;20460;-69
2023/10/11 14:14:04;;;;;;;0.80;0.80;;;;;;;;;;6329518;28;20306;-69
2023/10/11 14:17:15;;;;;;;0.80;0.80;;;;;;;;;;6331391;28;20309;-69
2023/10/11 14:20:24;;;;;;;2.55;0.82;;;;;;;;;;6330703;28;20318;-68
2023/10/11 14:23:27;;;;;;;1.55;0.80;;;;;;;;;;6331242;27;20373;-68
2023/10/11 14:26:33;;;;;;;1.10;0.95;;;;;;;;;;6330981;28;20309;-69
2023/10/11 14:29:38;;;;;;;1.55;0.70;;;;;;;;;;6330511;28;20289;-69
2023/10/11 14:32:44;;;;;;;1.35;0.95;;;;;;;;;;6330002;28;20302;-69
2023/10/11 14:35:48;;;;;;;1.38;0.77;;;;;;;;;;6331164;28;20380;-69
2023/10/11 14:38:52;;;;;;;1.10;1.00;;;;;;;;;;6330408;28;20290;-70
2023/10/11 14:41:58;;;;;;;0.77;0.77;;;;;;;;;;6330987;28;20297;-69
2023/10/11 14:45:04;;;;;;;2.05;1.00;;;;;;;;;;6330560;28;20295;-71
2023/10/11 14:48:09;;;;;;;0.70;0.70;;;;;;;;;;6330445;28;20309;-70
2023/10/11 14:51:13;;;;;;;0.82;0.82;;;;;;;;;;6331053;28;20369;-70
2023/10/11 14:54:17;;;;;;;1.05;1.00;;;;;;;;;;6330094;28;20308;-74
2023/10/11 14:57:21;;;;;;;1.60;1.02;;;;;;;;;;6328034;28;20334;-70
2023/10/11 15:00:33;;;;;;;1.20;1.10;;;;;;;;;;6328656;28;20503;-69
2023/10/11 15:03:37;;;;;;;5.82;1.48;;;;;;;;;;6329845;28;20660;-71
2023/10/11 15:06:45;;;;;;;1.13;0.95;;;;;;;;;;6330460;28;20298;-70
2023/10/11 15:09:50;;;;;;;1.50;1.23;;;;;;;;;;6333884;28;20290;-71
2023/10/11 15:12:55;;;;;;;2.55;1.20;;;;;;;;;;6334318;28;20321;-76
2023/10/11 15:16:03;;;;;;;1.10;0.90;;;;;;;;;;6335093;28;20253;-69
2023/10/11 15:19:09;;;;;;;1.20;0.90;;;;;;;;;;6334591;27;20293;-72
2023/10/11 15:22:15;;;;;;;2.05;1.10;;;;;;;;;;6334728;28;20285;-69
2023/10/11 15:25:19;;;;;;;1.10;0.93;;;;;;;;;;6333968;28;20285;-71
2023/10/11 15:28:23;;;;;;;1.13;1.05;;;;;;;;;;6334226;27;20293;-70
2023/10/11 15:31:30;;;;;;;2.67;1.10;;;;;;;;;;6333446;28;20441;-71
2023/10/11 15:34:35;;;;;;;1.52;1.42;;;;;;;;;;6334151;28;20301;-70
2023/10/11 15:37:44;;;;;;;1.38;1.27;;;;;;;;;;6333977;28;20290;-70
2023/10/11 15:40:57;;;;;;;2.15;1.10;;;;;;;;;;6334629;28;20562;-71
2023/10/11 15:44:04;;;;;;;2.55;1.25;;;;;;;;;;6333833;28;20297;-73
2023/10/11 15:47:09;;;;;;;1.92;1.00;;;;;;;;;;6334453;28;20297;-70
2023/10/11 15:50:13;;;;;;;9.00;1.48;;;;;;;;;;6333855;28;20293;-71
2023/10/11 15:53:17;;;;;;;5.10;1.23;;;;;;;;;;6333881;28;20602;-70
2023/10/11 15:56:21;;;;;;;3.78;1.52;;;;;;;;;;6334491;28;20501;-70
2023/10/11 15:59:28;;;;;;;3.72;1.50;;;;;;;;;;6333556;28;20602;-72
2023/10/11 16:02:33;;;;;;;4.28;1.50;;;;;;;;;;6333789;28;20290;-70
2023/10/11 16:05:38;;;;;;;4.25;1.90;;;;;;;;;;6334152;28;20313;-71
2023/10/11 16:08:42;;;;;;;5.72;1.65;;;;;;;;;;6333648;28;20290;-70
2023/10/11 16:11:46;;;;;;;1.40;1.30;;;;;;;;;;6333593;28;20298;-69
2023/10/11 16:14:51;;;;;;;3.97;1.63;;;;;;;;;;6332528;28;20298;-71
2023/10/11 16:17:56;;;;;;;5.60;1.40;;;;;;;;;;6332734;27;20297;-70
2023/10/11 16:21:01;;;;;;;3.75;1.50;;;;;;;;;;6333464;28;20293;-69
2023/10/11 16:24:08;;;;;;;4.13;1.50;;;;;;;;;;6333137;27;20496;-70
2023/10/11 16:27:14;;;;;;;2.75;1.73;;;;;;;;;;6333987;28;20297;-69
2023/10/11 16:30:23;;;;;;;2.35;1.50;;;;;;;;;;6332970;28;20290;-71
2023/10/11 16:33:29;;;;;;;3.88;1.80;;;;;;;;;;6333181;28;20295;-71
2023/10/11 16:36:34;;;;;;;1.73;1.40;;;;;;;;;;6333826;28;20294;-70
2023/10/11 16:39:38;;;;;;;5.22;1.83;;;;;;;;;;6332896;28;20293;-70
2023/10/11 16:42:43;;;;;;;12.70;1.88;;;;;;;;;;6333178;28;20400;-69
2023/10/11 16:45:47;;;;;;;9.27;2.00;;;;;;;;;;6333436;28;20297;-69
2023/10/11 16:48:53;;;;;;;9.57;2.13;;;;;;;;;;6331909;28;20376;-71
2023/10/11 16:51:57;;;;;;;5.65;1.88;;;;;;;;;;6333104;28;20341;-72
2023/10/11 16:55:01;;;;;;;6.22;2.20;;;;;;;;;;6332613;28;20605;-71
2023/10/11 16:58:05;;;;;;;7.40;2.35;;;;;;;;;;6332368;28;20301;-73
2023/10/11 17:01:09;;;;;;;10.02;2.50;;;;;;;;;;6332841;28;20274;-73
2023/10/11 17:04:15;;;;;;;6.30;2.47;;;;;;;;;;6332280;28;20304;-71
2023/10/11 17:07:23;;;;;;;10.77;2.20;;;;;;;;;;6332692;28;20321;-71
2023/10/11 17:10:28;;;;;;;10.43;2.00;;;;;;;;;;6332938;28;20301;-71
2023/10/11 17:13:32;;;;;;;5.75;1.92;;;;;;;;;;6330288;28;20326;-70
2023/10/11 17:16:36;;;;;;;7.10;1.85;;;;;;;;;;6332838;28;20297;-70
2023/10/11 17:19:41;;;;;;;5.00;1.95;;;;;;;;;;6331950;28;20512;-72
2023/10/11 17:22:47;;;;;;;5.93;1.92;;;;;;;;;;6332282;28;20594;-70
2023/10/11 17:25:52;;;;;;;6.65;2.30;;;;;;;;;;6333005;28;20298;-69
2023/10/11 17:29:15;;;;;;;6.57;2.35;;;;;;;;;;6331928;28;20344;-71
2023/10/11 17:32:19;;;;;;;5.47;1.67;;;;;;;;;;6331359;28;20297;-70
2023/10/11 17:35:24;;;;;;;8.15;2.00;;;;;;;;;;6332557;28;20309;-71
2023/10/11 17:38:28;;;;;;;3.58;1.92;;;;;;;;;;6331977;28;20313;-71
2023/10/11 17:41:32;;;;;;;4.53;1.92;;;;;;;;;;6332252;28;20295;-71
2023/10/11 17:44:38;;;;;;;9.20;2.05;;;;;;;;;;6332471;28;20293;-71
2023/10/11 17:47:43;;;;;;;5.55;1.75;;;;;;;;;;6332096;28;20289;-70
2023/10/11 17:50:48;;;;;;;10.18;2.42;;;;;;;;;;6332041;28;20299;-71
2023/10/11 17:53:52;;;;;;;2.90;1.48;;;;;;;;;;6331777;28;20372;-69
2023/10/11 17:56:56;;;;;;;4.90;1.70;;;;;;;;;;6331969;28;20516;-72
2023/10/11 18:00:00;;;;;;;5.10;2.00;;;;;;;;;;6331723;28;20294;-72
2023/10/11 18:03:08;;;;;;;8.50;2.03;;;;;;;;;;6330898;28;20301;-73
2023/10/11 18:06:13;;;;;;;7.50;2.00;;;;;;;;;;6331915;28;20582;-71
2023/10/11 18:09:17;;;;;;;10.45;2.33;;;;;;;;;;6331548;28;20313;-70
2023/10/11 18:12:21;;;;;;;6.22;2.13;;;;;;;;;;6331523;28;20289;-71
2023/10/11 18:15:30;;;;;;;4.88;2.15;;;;;;;;;;6329759;28;20285;-70
2023/10/11 18:18:34;;;;;;;6.15;2.58;;;;;;;;;;6331354;28;20286;-70
2023/10/11 18:21:43;;;;;;;6.68;2.20;;;;;;;;;;6331304;28;20396;-70
2023/10/11 18:24:48;;;;;;;6.55;2.15;;;;;;;;;;6331005;28;20305;-72
2023/10/11 18:27:53;;;;;;;6.35;2.00;;;;;;;;;;6330173;27;20565;-70
2023/10/11 18:30:59;;;;;;;9.80;2.20;;;;;;;;;;6331647;28;20431;-72
2023/10/11 18:34:03;;;;;;;5.78;2.35;;;;;;;;;;6330884;28;20310;-71
2023/10/11 18:37:12;;;;;;;5.60;1.83;;;;;;;;;;6331248;28;20534;-70
2023/10/11 18:40:20;;;;;;;12.00;2.42;;;;;;;;;;6330903;28;20435;-70
2023/10/11 18:43:24;;;;;;;9.57;2.20;;;;;;;;;;6335158;28;20293;-72
2023/10/11 18:46:28;;;;;;;9.70;2.00;;;;;;;;;;6336722;28;20305;-71
2023/10/11 18:49:32;;;;;;;5.50;1.80;;;;;;;;;;6336104;28;20297;-71
2023/10/11 18:52:37;;;;;;;18.67;3.28;;;;;;;;;;6335721;28;20451;-70
2023/10/11 18:55:42;;;;;;;6.70;2.20;;;;;;;;;;6335915;28;20299;-70
2023/10/11 18:58:47;;;;;;;10.10;2.05;;;;;;;;;;6335332;28;20301;-70
2023/10/11 19:01:51;;;;;;;5.40;2.20;;;;;;;;;;6335931;28;20298;-69